KMSS/MSS METAR and TAF weather

Enter ICAO airport designator
Station Type Date Time Source
KMSS METAR 2019/08/25 19:53 UTC NOAA

KMSS 251953Z AUTO 04008KT 10SM CLR 24/13 A3028 RMK AO2 SLP255 T02390128


Station Type Date Time Source
KMSS Decoded METAR 2019/08/25 19:53 UTC NOAA

Station name not available
Aug 25, 2019 - 03:53 PM EDT / 2019.08.25 1953 UTC
Wind: from the NE (040 degrees) at 9 MPH (8 KT):0
Visibility: 10 mile(s):0
Sky conditions: clear
Temperature: 75.0 F (23.9 C)
Dew Point: 55.0 F (12.8 C)
Relative Humidity: 49%
Pressure (altimeter): 30.28 in. Hg (1025 hPa)
ob: KMSS 251953Z AUTO 04008KT 10SM CLR 24/13 A3028 RMK AO2 SLP255 T02390128
cycle: 20

Station Type Date Time Source
KMSS TAF 2019/08/25 18:22 UTC NOAA

TAF KMSS 251720Z 2518/2618 07007KT P6SM SKC
FM260600 VRB03KT P6SM SKC

Example: see airport list